createdAt,value
2023-01-08T00:01:13.755Z,100637.34
2023-01-08T00:03:51.032Z,100642.27
2023-01-08T00:06:24.675Z,100644.57
2023-01-08T00:08:52.763Z,100639.32
2023-01-08T00:11:20.664Z,100633.16
2023-01-08T00:13:48.792Z,100626.84
2023-01-08T00:16:20.744Z,100620.30
2023-01-08T00:18:51.464Z,100618.66
2023-01-08T00:21:21.834Z,100618.12
2023-01-08T00:23:49.961Z,100615.36
2023-01-08T00:26:18.171Z,100615.37
2023-01-08T00:28:52.407Z,100615.60
2023-01-08T00:31:20.501Z,100609.81
2023-01-08T00:33:51.244Z,100609.83
2023-01-08T00:36:22.357Z,100613.31
2023-01-08T00:38:50.334Z,100609.30
2023-01-08T00:41:18.427Z,100612.83
2023-01-08T00:43:46.439Z,100609.55
2023-01-08T00:46:14.556Z,100605.71
2023-01-08T00:48:42.531Z,100602.14
2023-01-08T00:51:10.458Z,100600.94
2023-01-08T00:53:38.532Z,100595.62
2023-01-08T00:56:10.383Z,100591.74
2023-01-08T00:58:40.103Z,100595.70
2023-01-08T01:01:17.229Z,100593.41
2023-01-08T01:03:45.580Z,100592.97
2023-01-08T01:06:16.351Z,100596.00
2023-01-08T01:08:44.572Z,100594.75
2023-01-08T01:11:28.508Z,100595.96
2023-01-08T01:13:59.477Z,100597.46
2023-01-08T01:16:30.088Z,100595.42
2023-01-08T01:19:01.292Z,100593.42
2023-01-08T01:21:33.224Z,100596.34
2023-01-08T01:24:06.296Z,100591.95
2023-01-08T01:26:35.863Z,100588.97
2023-01-08T01:29:06.234Z,100592.92
2023-01-08T01:31:37.066Z,100595.40
2023-01-08T01:34:05.058Z,100594.22
2023-01-08T01:36:32.999Z,100586.35
2023-01-08T01:39:00.986Z,100583.30
2023-01-08T01:41:49.539Z,100577.89
2023-01-08T01:44:40.260Z,100584.12
2023-01-08T01:47:40.125Z,100579.72
2023-01-08T01:50:35.513Z,100573.42
2023-01-08T01:53:10.612Z,100580.02
2023-01-08T01:55:43.397Z,100578.35
2023-01-08T01:58:31.038Z,100577.65
2023-01-08T02:01:10.756Z,100572.80
2023-01-08T02:03:42.363Z,100570.88
2023-01-08T02:06:36.038Z,100569.16
2023-01-08T02:09:41.843Z,100570.02
2023-01-08T02:12:41.466Z,100569.13
2023-01-08T02:15:37.332Z,100566.27
2023-01-08T02:18:10.439Z,100562.39
2023-01-08T02:20:38.404Z,100558.15
2023-01-08T02:23:19.277Z,100550.44
2023-01-08T02:26:12.024Z,100543.71
2023-01-08T02:29:03.752Z,100536.98
2023-01-08T02:31:36.269Z,100530.40
2023-01-08T02:34:06.688Z,100525.98
2023-01-08T02:37:06.175Z,100524.77
2023-01-08T02:40:12.480Z,100521.59
2023-01-08T02:42:51.680Z,100521.60
2023-01-08T02:45:45.006Z,100520.55
2023-01-08T02:48:22.176Z,100520.52
2023-01-08T02:51:20.534Z,100518.86
2023-01-08T02:53:58.091Z,100515.05
2023-01-08T02:56:34.867Z,100515.44
2023-01-08T02:59:13.536Z,100511.04
2023-01-08T03:01:45.801Z,100504.64
2023-01-08T03:04:25.737Z,100496.29
2023-01-08T03:06:56.583Z,100496.09
2023-01-08T03:09:24.563Z,100497.37
2023-01-08T03:12:03.415Z,100499.66
2023-01-08T03:15:07.164Z,100504.05
2023-01-08T03:17:49.611Z,100500.70
2023-01-08T03:20:25.064Z,100492.67
2023-01-08T03:22:59.581Z,100485.09
2023-01-08T03:25:30.070Z,100479.27
2023-01-08T03:28:04.090Z,100473.85
2023-01-08T03:30:36.288Z,100475.05
2023-01-08T03:33:09.539Z,100471.05
2023-01-08T03:35:42.910Z,100465.98
2023-01-08T03:38:33.785Z,100469.02
2023-01-08T03:41:10.653Z,100463.48
2023-01-08T03:43:38.613Z,100462.13
2023-01-08T03:46:16.660Z,100457.07
2023-01-08T03:48:47.288Z,100450.58
2023-01-08T03:51:15.407Z,100443.89
2023-01-08T03:53:49.929Z,100439.27
2023-01-08T03:56:17.847Z,100437.98
2023-01-08T03:58:45.970Z,100430.84
2023-01-08T04:01:14.151Z,100435.57
2023-01-08T04:03:42.928Z,100429.41
2023-01-08T04:06:11.026Z,100428.89
2023-01-08T04:08:39.001Z,100436.98
2023-01-08T04:11:06.908Z,100445.89
2023-01-08T04:13:35.046Z,100445.80
2023-01-08T04:16:03.146Z,100441.93
2023-01-08T04:18:36.511Z,100441.88
2023-01-08T04:21:04.655Z,100434.67
2023-01-08T04:23:32.841Z,100430.76
2023-01-08T04:26:07.256Z,100434.77
2023-01-08T04:28:38.223Z,100431.52
2023-01-08T04:31:10.407Z,100431.89
2023-01-08T04:33:38.760Z,100427.70
2023-01-08T04:36:07.027Z,100422.56
2023-01-08T04:38:34.967Z,100418.90
2023-01-08T04:41:06.023Z,100407.36
2023-01-08T04:43:34.531Z,100403.75
2023-01-08T04:46:09.451Z,100401.37
2023-01-08T04:48:37.509Z,100399.94
2023-01-08T04:51:05.964Z,100403.55
2023-01-08T04:53:40.572Z,100408.38
2023-01-08T04:56:12.659Z,100405.70
2023-01-08T04:58:40.748Z,100395.67
2023-01-08T05:01:27.767Z,100388.35
2023-01-08T05:04:01.642Z,100387.15
2023-01-08T05:06:33.101Z,100387.30
2023-01-08T05:09:01.299Z,100385.55
2023-01-08T05:11:29.559Z,100395.52
2023-01-08T05:13:59.712Z,100400.25
2023-01-08T05:16:27.730Z,100404.73
2023-01-08T05:18:55.680Z,100408.35
2023-01-08T05:21:23.638Z,100404.84
2023-01-08T05:23:51.703Z,100401.94
2023-01-08T05:26:19.918Z,100403.13
2023-01-08T05:28:50.651Z,100397.05
2023-01-08T05:31:18.625Z,100397.11
2023-01-08T05:33:51.773Z,100395.91
2023-01-08T05:36:19.748Z,100394.75
2023-01-08T05:38:47.854Z,100394.15
2023-01-08T05:41:16.063Z,100388.89
2023-01-08T05:43:44.086Z,100387.03
2023-01-08T05:46:12.401Z,100383.34
2023-01-08T05:48:40.315Z,100382.98
2023-01-08T05:51:11.215Z,100374.79
2023-01-08T05:53:41.828Z,100375.22
2023-01-08T05:56:13.264Z,100370.84
2023-01-08T05:58:41.318Z,100373.48
2023-01-08T06:01:18.289Z,100371.32
2023-01-08T06:03:46.506Z,100367.20
2023-01-08T06:06:17.221Z,100363.62
2023-01-08T06:08:45.047Z,100364.16
2023-01-08T06:11:13.825Z,100360.42
2023-01-08T06:13:45.855Z,100358.70
2023-01-08T06:16:17.783Z,100362.20
2023-01-08T06:18:45.838Z,100367.54
2023-01-08T06:21:13.938Z,100370.96
2023-01-08T06:23:41.959Z,100371.23
2023-01-08T06:26:09.943Z,100369.91
2023-01-08T06:28:40.471Z,100365.75
2023-01-08T06:31:08.507Z,100364.80
2023-01-08T06:33:36.612Z,100366.85
2023-01-08T06:36:07.761Z,100356.69
2023-01-08T06:38:40.895Z,100349.12
2023-01-08T06:41:12.832Z,100343.78
2023-01-08T06:43:40.887Z,100342.65
2023-01-08T06:46:12.247Z,100340.15
2023-01-08T06:48:40.433Z,100338.92
2023-01-08T06:51:11.150Z,100339.70
2023-01-08T06:53:39.112Z,100342.34
2023-01-08T06:56:11.134Z,100335.89
2023-01-08T06:58:41.914Z,100326.55
2023-01-08T07:01:16.721Z,100319.86
2023-01-08T07:03:45.006Z,100315.38
2023-01-08T07:06:25.163Z,100320.52
2023-01-08T07:08:53.139Z,100323.71
2023-01-08T07:11:21.225Z,100324.13
2023-01-08T07:13:49.523Z,100325.95
2023-01-08T07:16:17.489Z,100329.95
2023-01-08T07:18:45.842Z,100324.90
2023-01-08T07:21:14.096Z,100327.78
2023-01-08T07:23:42.233Z,100322.85
2023-01-08T07:26:10.234Z,100318.50
2023-01-08T07:28:38.272Z,100310.05
2023-01-08T07:31:08.788Z,100307.88
2023-01-08T07:33:36.906Z,100312.18
2023-01-08T07:36:08.309Z,100315.11
2023-01-08T07:38:36.383Z,100306.44
2023-01-08T07:41:04.724Z,100305.80
2023-01-08T07:43:32.635Z,100302.67
2023-01-08T07:46:04.161Z,100298.13
2023-01-08T07:48:32.327Z,100302.47
2023-01-08T07:51:08.318Z,100300.09
2023-01-08T07:53:39.261Z,100298.81
2023-01-08T07:56:10.981Z,100295.86
2023-01-08T07:58:39.135Z,100294.02
2023-01-08T08:01:11.296Z,100300.29
2023-01-08T08:03:42.277Z,100299.78
2023-01-08T08:06:11.348Z,100294.64
2023-01-08T08:08:41.905Z,100302.02
2023-01-08T08:11:12.806Z,100298.64
2023-01-08T08:13:47.576Z,100297.15
2023-01-08T08:16:15.651Z,100304.48
2023-01-08T08:18:43.606Z,100301.61
2023-01-08T08:21:11.657Z,100293.63
2023-01-08T08:23:39.800Z,100290.09
2023-01-08T08:26:10.094Z,100291.64
2023-01-08T08:28:38.247Z,100286.14
2023-01-08T08:31:06.336Z,100289.64
2023-01-08T08:33:36.872Z,100293.33
2023-01-08T08:36:05.334Z,100294.79
2023-01-08T08:38:33.789Z,100294.71
2023-01-08T08:41:02.025Z,100284.65
2023-01-08T08:43:29.990Z,100281.13
2023-01-08T08:45:58.117Z,100284.56
2023-01-08T08:48:26.367Z,100284.52
2023-01-08T08:50:54.357Z,100282.80
2023-01-08T08:53:22.561Z,100281.52
2023-01-08T08:55:50.421Z,100289.64
2023-01-08T08:58:18.397Z,100292.73
2023-01-08T09:00:46.375Z,100289.30
2023-01-08T09:03:15.650Z,100281.89
2023-01-08T09:05:44.199Z,100280.52
2023-01-08T09:08:12.852Z,100278.89
2023-01-08T09:10:42.556Z,100265.13
2023-01-08T09:13:11.553Z,100260.90
2023-01-08T09:15:40.091Z,100257.68
2023-01-08T09:18:08.365Z,100259.30
2023-01-08T09:20:36.495Z,100266.42
2023-01-08T09:23:04.523Z,100274.19
2023-01-08T09:25:32.719Z,100272.02
2023-01-08T09:28:02.737Z,100266.16
2023-01-08T09:30:31.408Z,100259.92
2023-01-08T09:33:02.540Z,100256.14
2023-01-08T09:35:33.022Z,100252.15
2023-01-08T09:38:01.252Z,100248.31
2023-01-08T09:40:35.609Z,100261.29
2023-01-08T09:43:06.249Z,100260.63
2023-01-08T09:45:37.977Z,100264.13
2023-01-08T09:48:12.714Z,100264.48
2023-01-08T09:50:40.774Z,100258.50
2023-01-08T09:53:19.023Z,100249.52
2023-01-08T09:56:09.174Z,100246.91
2023-01-08T09:58:39.587Z,100252.75
2023-01-08T10:01:14.758Z,100249.56
2023-01-08T10:03:47.133Z,100248.86
2023-01-08T10:06:16.364Z,100242.19
2023-01-08T10:11:15.904Z,100240.86
2023-01-08T10:13:49.968Z,100243.74
2023-01-08T10:16:30.698Z,100233.03
2023-01-08T10:19:00.085Z,100226.72
2023-01-08T10:21:36.694Z,100220.95
2023-01-08T10:24:05.221Z,100224.21
2023-01-08T10:26:39.600Z,100217.97
2023-01-08T10:29:19.422Z,100224.58
2023-01-08T10:31:53.045Z,100220.17
2023-01-08T10:34:47.124Z,100214.05
2023-01-08T10:37:27.206Z,100206.61
2023-01-08T10:40:19.404Z,100205.48
2023-01-08T10:42:48.708Z,100208.85
2023-01-08T10:45:28.586Z,100206.94
2023-01-08T10:48:00.910Z,100198.65
2023-01-08T10:50:31.462Z,100197.73
2023-01-08T10:53:05.898Z,100191.38
2023-01-08T10:55:37.671Z,100187.93
2023-01-08T10:58:05.679Z,100178.89
2023-01-08T11:00:36.007Z,100179.25
2023-01-08T11:03:31.057Z,100173.41
2023-01-08T11:05:59.580Z,100181.20
2023-01-08T11:08:27.763Z,100178.74
2023-01-08T11:10:59.071Z,100166.17
2023-01-08T11:13:28.668Z,100162.89
2023-01-08T11:16:10.616Z,100156.35
2023-01-08T11:18:50.911Z,100159.42
2023-01-08T11:21:33.491Z,100155.88
2023-01-08T11:24:11.431Z,100160.94
2023-01-08T11:26:44.509Z,100160.07
2023-01-08T11:29:21.268Z,100155.01
2023-01-08T11:32:29.416Z,100156.46
2023-01-08T11:35:03.648Z,100153.22
2023-01-08T11:37:41.569Z,100149.72
2023-01-08T11:40:16.454Z,100150.23
2023-01-08T11:42:53.505Z,100144.38
2023-01-08T11:45:25.903Z,100137.59
2023-01-08T11:48:14.510Z,100133.27
2023-01-08T11:51:09.032Z,100126.27
2023-01-08T11:53:51.105Z,100115.13
2023-01-08T11:56:51.299Z,100113.54
2023-01-08T11:59:33.761Z,100117.41
2023-01-08T12:02:34.145Z,100116.90
2023-01-08T12:05:45.253Z,100107.29
2023-01-08T12:08:26.354Z,100096.54
2023-01-08T12:11:28.273Z,100092.95
2023-01-08T12:13:58.178Z,100093.15
2023-01-08T12:16:44.856Z,100086.32
2023-01-08T12:19:38.221Z,100088.23
2023-01-08T12:22:34.522Z,100082.95
2023-01-08T12:25:13.489Z,100084.33
2023-01-08T12:28:02.430Z,100081.33
2023-01-08T12:30:48.876Z,100083.44
2023-01-08T12:33:16.941Z,100086.70
2023-01-08T12:35:54.555Z,100092.60
2023-01-08T12:38:30.826Z,100090.59
2023-01-08T12:41:04.195Z,100091.30
2023-01-08T12:43:42.371Z,100090.39
2023-01-08T12:46:13.972Z,100088.59
2023-01-08T12:48:43.668Z,100094.60
2023-01-08T12:51:26.826Z,100094.23
2023-01-08T12:54:09.971Z,100102.20
2023-01-08T12:56:43.513Z,100095.65
2023-01-08T12:59:17.141Z,100097.08
2023-01-08T13:02:05.088Z,100091.02
2023-01-08T13:04:45.475Z,100088.20
2023-01-08T13:07:37.119Z,100090.48
2023-01-08T13:10:19.616Z,100087.31
2023-01-08T13:12:52.158Z,100085.96
2023-01-08T13:15:22.491Z,100079.77
2023-01-08T13:17:51.255Z,100079.67
2023-01-08T13:20:37.665Z,100076.66
2023-01-08T13:23:06.095Z,100071.36
2023-01-08T13:25:38.708Z,100062.59
2023-01-08T13:28:45.597Z,100059.34
2023-01-08T13:31:19.835Z,100056.18
2023-01-08T13:33:49.325Z,100063.94
2023-01-08T13:36:24.055Z,100060.39
2023-01-08T13:39:06.387Z,100058.48
2023-01-08T13:41:35.675Z,100050.83
2023-01-08T13:44:14.557Z,100051.02
2023-01-08T13:46:44.334Z,100053.46
2023-01-08T13:49:34.684Z,100047.77
2023-01-08T13:52:03.396Z,100045.42
2023-01-08T13:54:39.191Z,100040.60
2023-01-08T13:57:15.248Z,100044.00
2023-01-08T13:59:49.393Z,100042.11
2023-01-08T14:02:27.786Z,100043.44
2023-01-08T14:04:56.089Z,100039.84
2023-01-08T14:07:25.655Z,100038.90
2023-01-08T14:09:54.211Z,100035.60
2023-01-08T14:12:25.103Z,100035.77
2023-01-08T14:14:58.258Z,100036.56
2023-01-08T14:17:32.052Z,100035.37
2023-01-08T14:20:00.215Z,100034.90
2023-01-08T14:22:34.890Z,100035.41
2023-01-08T14:25:06.514Z,100039.06
2023-01-08T14:27:35.461Z,100039.39
2023-01-08T14:30:16.198Z,100037.25
2023-01-08T14:32:45.295Z,100032.04
2023-01-08T14:35:23.877Z,100024.58
2023-01-08T14:37:51.888Z,100022.52
2023-01-08T14:40:29.675Z,100024.48
2023-01-08T14:43:02.407Z,100022.81
2023-01-08T14:45:32.786Z,100018.90
2023-01-08T14:48:23.594Z,100018.63
2023-01-08T14:51:00.482Z,100013.65
2023-01-08T14:53:34.078Z,100015.77
2023-01-08T14:56:04.912Z,100014.41
2023-01-08T14:58:39.444Z,100010.40
2023-01-08T15:01:20.646Z,100008.67
2023-01-08T15:03:51.303Z,100007.66
2023-01-08T15:06:31.986Z,100001.83
2023-01-08T15:09:00.708Z,99999.70
2023-01-08T15:11:31.943Z,99997.08
2023-01-08T15:14:00.165Z,99999.03
2023-01-08T15:16:55.319Z,100001.02
2023-01-08T15:19:26.584Z,100001.24
2023-01-08T15:21:57.874Z,99999.67
2023-01-08T15:24:39.965Z,100004.39
2023-01-08T15:27:11.267Z,99994.95
2023-01-08T15:29:47.055Z,99992.84
2023-01-08T15:32:15.119Z,99997.43
2023-01-08T15:34:45.996Z,99995.84
2023-01-08T15:37:15.322Z,99999.92
2023-01-08T15:39:43.575Z,100001.26
2023-01-08T15:42:43.192Z,99995.74
2023-01-08T15:45:14.585Z,99999.70
2023-01-08T15:47:42.647Z,99992.70
2023-01-08T15:50:11.401Z,99991.46
2023-01-08T15:52:41.821Z,99989.71
2023-01-08T15:55:16.965Z,99986.45
2023-01-08T15:57:45.283Z,99983.41
2023-01-08T16:00:15.358Z,99977.27
2023-01-08T16:02:54.324Z,99977.31
2023-01-08T16:05:24.478Z,99970.92
2023-01-08T16:07:52.615Z,99970.27
2023-01-08T16:10:20.814Z,99963.92
2023-01-08T16:12:49.026Z,99968.13
2023-01-08T16:15:17.802Z,99959.61
2023-01-08T16:17:45.986Z,99965.19
2023-01-08T16:20:14.888Z,99960.17
2023-01-08T16:22:43.889Z,99966.07
2023-01-08T16:25:11.939Z,99966.94
2023-01-08T16:27:41.245Z,99968.02
2023-01-08T16:30:14.795Z,99972.79
2023-01-08T16:32:43.634Z,99976.27
2023-01-08T16:35:11.736Z,99979.92
2023-01-08T16:37:40.284Z,99980.45
2023-01-08T16:40:10.002Z,99986.17
2023-01-08T16:42:38.179Z,99984.48
2023-01-08T16:45:08.539Z,99981.90
2023-01-08T16:47:40.174Z,99992.55
2023-01-08T16:50:10.331Z,100000.20
2023-01-08T16:52:39.156Z,99993.52
2023-01-08T16:55:07.780Z,99992.34
2023-01-08T16:57:36.112Z,99989.61
2023-01-08T17:00:06.203Z,99981.52
2023-01-08T17:02:34.297Z,99979.52
2023-01-08T17:05:02.625Z,99975.35
2023-01-08T17:07:30.614Z,99970.10
2023-01-08T17:09:58.742Z,99968.30
2023-01-08T17:12:26.768Z,99963.67
2023-01-08T17:14:54.658Z,99964.56
2023-01-08T17:17:22.776Z,99963.98
2023-01-08T17:19:50.738Z,99958.64
2023-01-08T17:22:18.658Z,99963.17
2023-01-08T17:24:46.878Z,99958.09
2023-01-08T17:27:15.058Z,99950.17
2023-01-08T17:29:43.230Z,99948.58
2023-01-08T17:32:12.173Z,99949.31
2023-01-08T17:34:40.590Z,99950.45
2023-01-08T17:37:08.466Z,99949.17
2023-01-08T17:39:36.413Z,99944.89
2023-01-08T17:42:23.124Z,99946.84
2023-01-08T17:44:56.060Z,99949.27
2023-01-08T17:47:25.936Z,99958.32
2023-01-08T17:49:56.497Z,99959.22
2023-01-08T17:52:26.270Z,99972.10
2023-01-08T17:54:54.325Z,99974.22
2023-01-08T17:57:22.906Z,99970.05
2023-01-08T17:59:51.330Z,99962.31
2023-01-08T18:02:19.528Z,99962.48
2023-01-08T18:04:48.484Z,99966.13
2023-01-08T18:07:16.826Z,99963.45
2023-01-08T18:09:45.173Z,99962.09
2023-01-08T18:12:13.230Z,99959.67
2023-01-08T18:14:42.159Z,99954.07
2023-01-08T18:17:10.541Z,99957.14
2023-01-08T18:19:38.824Z,99956.54
2023-01-08T18:22:06.834Z,99951.42
2023-01-08T18:24:35.195Z,99951.52
2023-01-08T18:27:03.642Z,99951.78
2023-01-08T18:29:31.810Z,99953.09
2023-01-08T18:32:00.407Z,99951.91
2023-01-08T18:34:28.659Z,99949.23
2023-01-08T18:36:56.637Z,99947.76
2023-01-08T18:39:26.747Z,99943.89
2023-01-08T18:42:13.733Z,99941.31
2023-01-08T18:44:41.853Z,99945.08
2023-01-08T18:47:12.556Z,99947.24
2023-01-08T18:49:40.605Z,99940.30
2023-01-08T18:52:08.719Z,99940.64
2023-01-08T18:54:36.788Z,99938.31
2023-01-08T18:57:04.774Z,99937.66
2023-01-08T18:59:32.921Z,99940.51
2023-01-08T19:02:01.299Z,99941.09
2023-01-08T19:04:29.436Z,99941.02
2023-01-08T19:06:57.594Z,99939.56
2023-01-08T19:09:25.975Z,99934.11
2023-01-08T19:11:53.907Z,99932.92
2023-01-08T19:14:22.017Z,99929.79
2023-01-08T19:16:51.560Z,99929.25
2023-01-08T19:19:20.087Z,99931.70
2023-01-08T19:21:48.572Z,99934.42
2023-01-08T19:24:17.111Z,99934.64
2023-01-08T19:26:45.070Z,99935.86
2023-01-08T19:29:13.152Z,99937.63
2023-01-08T19:31:41.279Z,99940.89
2023-01-08T19:34:10.041Z,99937.02
2023-01-08T19:36:39.409Z,99938.02
2023-01-08T19:39:07.730Z,99934.61
2023-01-08T19:41:54.427Z,99929.60
2023-01-08T19:44:54.232Z,99923.88
2023-01-08T19:47:23.406Z,99923.91
2023-01-08T19:49:51.468Z,99919.13
2023-01-08T19:52:20.072Z,99917.41
2023-01-08T19:54:47.998Z,99910.27
2023-01-08T19:57:15.925Z,99898.50
2023-01-08T19:59:43.861Z,99893.39
2023-01-08T20:02:12.303Z,99890.73
2023-01-08T20:04:46.443Z,99889.14
2023-01-08T20:07:15.359Z,99882.56
2023-01-08T20:09:43.892Z,99871.69
2023-01-08T20:12:12.139Z,99865.39
2023-01-08T20:14:40.164Z,99864.83
2023-01-08T20:17:08.109Z,99864.09
2023-01-08T20:19:37.088Z,99861.98
2023-01-08T20:22:05.273Z,99855.87
2023-01-08T20:24:33.273Z,99856.42
2023-01-08T20:27:01.159Z,99854.23
2023-01-08T20:29:29.180Z,99852.48
2023-01-08T20:31:59.412Z,99847.02
2023-01-08T20:34:27.654Z,99837.45
2023-01-08T20:36:56.422Z,99834.42
2023-01-08T20:39:25.210Z,99828.54
2023-01-08T20:42:01.010Z,99822.36
2023-01-08T20:44:33.275Z,99823.23
2023-01-08T20:47:02.267Z,99819.48
2023-01-08T20:49:30.494Z,99815.89
2023-01-08T20:52:00.396Z,99818.98
2023-01-08T20:54:30.188Z,99817.89
2023-01-08T20:56:59.868Z,99816.84
2023-01-08T20:59:28.551Z,99813.10
2023-01-08T21:01:57.346Z,99808.21
2023-01-08T21:04:25.587Z,99806.18
2023-01-08T21:06:53.536Z,99807.48
2023-01-08T21:09:21.649Z,99803.02
2023-01-08T21:11:50.790Z,99799.63
2023-01-08T21:14:18.870Z,99797.11
2023-01-08T21:16:46.901Z,99798.09
2023-01-08T21:19:15.449Z,99798.46
2023-01-08T21:21:43.356Z,99794.13
2023-01-08T21:24:12.591Z,99792.28
2023-01-08T21:26:40.785Z,99795.13
2023-01-08T21:29:10.125Z,99793.59
2023-01-08T21:31:38.892Z,99795.92
2023-01-08T21:34:09.003Z,99795.93
2023-01-08T21:36:39.339Z,99790.00
2023-01-08T21:39:07.565Z,99785.08
2023-01-08T21:41:54.224Z,99782.73
2023-01-08T21:44:43.006Z,99781.09
2023-01-08T21:47:14.073Z,99784.86
2023-01-08T21:49:42.401Z,99782.25
2023-01-08T21:52:28.864Z,99779.23
2023-01-08T21:54:58.326Z,99775.97
2023-01-08T21:57:28.183Z,99770.80
2023-01-08T21:59:56.824Z,99767.18
2023-01-08T22:02:25.496Z,99765.63
2023-01-08T22:04:56.011Z,99766.67
2023-01-08T22:07:25.355Z,99774.16
2023-01-08T22:09:53.376Z,99776.19
2023-01-08T22:12:26.143Z,99773.08
2023-01-08T22:14:55.703Z,99770.09
2023-01-08T22:17:25.529Z,99767.39
2023-01-08T22:19:53.757Z,99758.69
2023-01-08T22:22:21.833Z,99750.06
2023-01-08T22:24:52.893Z,99744.88
2023-01-08T22:27:21.667Z,99738.04
2023-01-08T22:29:49.727Z,99744.86
2023-01-08T22:32:18.005Z,99748.64
2023-01-08T22:34:46.106Z,99760.39
2023-01-08T22:37:14.082Z,99765.75
2023-01-08T22:39:41.930Z,99766.94
2023-01-08T22:42:09.828Z,99751.77
2023-01-08T22:44:37.703Z,99746.38
2023-01-08T22:47:06.221Z,99745.55
2023-01-08T22:49:34.334Z,99740.38
2023-01-08T22:52:02.403Z,99733.59
2023-01-08T22:54:30.357Z,99731.05
2023-01-08T22:56:58.372Z,99730.95
2023-01-08T22:59:26.313Z,99726.23
2023-01-08T23:01:54.180Z,99718.27
2023-01-08T23:04:22.194Z,99707.27
2023-01-08T23:06:50.156Z,99693.11
2023-01-08T23:09:18.176Z,99690.88
2023-01-08T23:11:46.013Z,99688.60
2023-01-08T23:14:16.034Z,99691.67
2023-01-08T23:16:44.121Z,99696.32
2023-01-08T23:19:12.133Z,99696.91
2023-01-08T23:21:40.342Z,99688.98
2023-01-08T23:24:12.310Z,99689.20
2023-01-08T23:26:40.902Z,99693.66
2023-01-08T23:29:10.731Z,99691.77
2023-01-08T23:31:39.155Z,99687.19
2023-01-08T23:34:07.656Z,99686.50
2023-01-08T23:36:35.685Z,99682.20
2023-01-08T23:39:04.549Z,99675.81
2023-01-08T23:41:34.887Z,99669.39
2023-01-08T23:44:21.653Z,99668.15
2023-01-08T23:46:49.524Z,99666.86
2023-01-08T23:49:17.584Z,99664.92
2023-01-08T23:51:45.638Z,99665.89
2023-01-08T23:54:14.061Z,99661.23
2023-01-08T23:56:43.788Z,99653.59
2023-01-08T23:59:11.946Z,99650.59
